Time;durP1;ratioP1;P1;durP2;ratioP2;P2;SDS_P1;SDS_P2;PMS_P1;PMS_P2;Temp;Humidity;BMP_temperature;BMP_pressure;BME280_temperature;BME280_humidity;BME280_pressure;Samples;Min_cycle;Max_cycle;Signal;HPM_P1;HPM_P2
2023/12/27 00:01:20;;;;;;;6.20;3.67;;;;;;;;;;5118907;28;20222;-77
2023/12/27 00:03:47;;;;;;;7.47;3.47;;;;;;;;;;5118720;28;20198;-77
2023/12/27 00:06:14;;;;;;;5.83;4.30;;;;;;;;;;5119602;28;20244;-77
2023/12/27 00:08:40;;;;;;;6.77;3.77;;;;;;;;;;5117773;28;20207;-77
2023/12/27 00:11:07;;;;;;;8.57;3.43;;;;;;;;;;5119000;28;20223;-77
2023/12/27 00:13:35;;;;;;;5.70;3.50;;;;;;;;;;5119077;28;20610;-77
2023/12/27 00:16:05;;;;;;;4.87;3.70;;;;;;;;;;5118936;28;20191;-77
2023/12/27 00:18:32;;;;;;;7.93;4.27;;;;;;;;;;5118893;28;20204;-77
2023/12/27 00:20:59;;;;;;;9.33;4.23;;;;;;;;;;5119252;28;20195;-77
2023/12/27 00:23:27;;;;;;;6.50;3.87;;;;;;;;;;5117502;28;20203;-77
2023/12/27 00:25:54;;;;;;;5.37;3.47;;;;;;;;;;5118221;28;20744;-77
2023/12/27 00:28:21;;;;;;;4.10;3.70;;;;;;;;;;5118469;28;20638;-77
2023/12/27 00:30:51;;;;;;;6.10;3.67;;;;;;;;;;5118434;28;20662;-77
2023/12/27 00:33:18;;;;;;;5.33;3.60;;;;;;;;;;5118740;28;20206;-77
2023/12/27 00:35:45;;;;;;;6.27;4.17;;;;;;;;;;5119064;28;20199;-77
2023/12/27 00:38:12;;;;;;;5.20;3.83;;;;;;;;;;5118505;28;20199;-77
2023/12/27 00:40:39;;;;;;;5.30;3.30;;;;;;;;;;5118578;28;20202;-77
2023/12/27 00:43:06;;;;;;;5.23;3.43;;;;;;;;;;5117014;28;20249;-77
2023/12/27 00:45:32;;;;;;;4.73;2.60;;;;;;;;;;5115526;28;21191;-77
2023/12/27 00:48:01;;;;;;;5.33;3.13;;;;;;;;;;5115855;28;20195;-77
2023/12/27 00:50:27;;;;;;;3.80;3.30;;;;;;;;;;5109837;28;20193;-77
2023/12/27 00:52:54;;;;;;;39.90;19.70;;;;;;;;;;5109101;28;20215;-78
2023/12/27 00:55:21;;;;;;;53.63;32.50;;;;;;;;;;5114357;28;20199;-77
2023/12/27 00:57:48;;;;;;;13.87;8.90;;;;;;;;;;5115204;28;20195;-77
2023/12/27 01:00:15;;;;;;;4.27;3.73;;;;;;;;;;5115665;28;20191;-77
2023/12/27 01:02:43;;;;;;;5.03;3.63;;;;;;;;;;5115411;28;20195;-77
2023/12/27 01:05:13;;;;;;;7.90;4.53;;;;;;;;;;5114894;28;20195;-77
2023/12/27 01:07:41;;;;;;;11.90;6.40;;;;;;;;;;5115765;28;20208;-77
2023/12/27 01:10:08;;;;;;;11.00;6.20;;;;;;;;;;5115137;28;20272;-77
2023/12/27 01:12:35;;;;;;;7.90;5.50;;;;;;;;;;5114592;28;20214;-79
2023/12/27 01:15:02;;;;;;;8.93;5.00;;;;;;;;;;5113225;28;20208;-77
2023/12/27 01:17:29;;;;;;;8.57;4.87;;;;;;;;;;5114697;28;20691;-77
2023/12/27 01:19:56;;;;;;;8.97;6.40;;;;;;;;;;5113166;28;20211;-78
2023/12/27 01:22:24;;;;;;;7.73;5.57;;;;;;;;;;5114977;28;20199;-78
2023/12/27 01:24:50;;;;;;;8.83;4.60;;;;;;;;;;5107151;28;20219;-78
2023/12/27 01:27:17;;;;;;;5.37;4.47;;;;;;;;;;5094215;28;20203;-78
2023/12/27 01:29:44;;;;;;;9.83;4.83;;;;;;;;;;5094206;28;20727;-78
2023/12/27 01:32:13;;;;;;;5.93;3.77;;;;;;;;;;5094343;28;20232;-78
2023/12/27 01:34:39;;;;;;;7.03;4.80;;;;;;;;;;5094561;28;20200;-77
2023/12/27 01:37:06;;;;;;;8.63;5.43;;;;;;;;;;5093550;28;20199;-78
2023/12/27 01:39:35;;;;;;;4.67;4.17;;;;;;;;;;5094457;28;20200;-77
2023/12/27 01:42:05;;;;;;;7.33;4.00;;;;;;;;;;5094556;28;20250;-78
2023/12/27 01:44:31;;;;;;;6.00;3.63;;;;;;;;;;5106937;28;20199;-77
2023/12/27 01:46:58;;;;;;;4.37;3.57;;;;;;;;;;5114208;28;20199;-77
2023/12/27 01:49:25;;;;;;;7.63;3.80;;;;;;;;;;5114498;28;20199;-78
2023/12/27 01:51:52;;;;;;;5.50;3.37;;;;;;;;;;5098676;28;20223;-78
2023/12/27 01:54:19;;;;;;;7.33;3.97;;;;;;;;;;5093660;28;20200;-79
2023/12/27 01:56:47;;;;;;;7.17;4.43;;;;;;;;;;5114540;28;20232;-78
2023/12/27 01:59:14;;;;;;;5.67;3.57;;;;;;;;;;5112690;28;20195;-78
2023/12/27 02:01:41;;;;;;;6.33;3.50;;;;;;;;;;5114373;28;20203;-78
2023/12/27 02:04:07;;;;;;;3.67;2.70;;;;;;;;;;5114374;28;20203;-78
2023/12/27 02:06:34;;;;;;;5.63;3.03;;;;;;;;;;5113854;28;20622;-78
2023/12/27 02:09:01;;;;;;;5.13;4.27;;;;;;;;;;5114156;28;20617;-78
2023/12/27 02:11:28;;;;;;;5.40;3.00;;;;;;;;;;5114812;28;20276;-78
2023/12/27 02:13:56;;;;;;;5.00;3.00;;;;;;;;;;5114402;28;20210;-78
2023/12/27 02:16:23;;;;;;;9.90;3.23;;;;;;;;;;5113795;28;20571;-77
2023/12/27 02:18:50;;;;;;;3.87;2.83;;;;;;;;;;5114415;28;20191;-80
2023/12/27 02:21:18;;;;;;;4.83;3.47;;;;;;;;;;5112417;28;20225;-78
2023/12/27 02:23:47;;;;;;;6.17;3.00;;;;;;;;;;5103099;28;20682;-78
2023/12/27 02:26:15;;;;;;;3.83;2.80;;;;;;;;;;5106202;28;20195;-78
2023/12/27 02:28:42;;;;;;;6.73;3.13;;;;;;;;;;5113340;28;20688;-78
2023/12/27 02:31:08;;;;;;;7.23;3.13;;;;;;;;;;5113313;28;20686;-78
2023/12/27 02:33:35;;;;;;;5.50;3.90;;;;;;;;;;5103609;28;20659;-78
2023/12/27 02:36:05;;;;;;;3.83;2.83;;;;;;;;;;5093270;28;20589;-78
2023/12/27 02:38:31;;;;;;;12.40;3.13;;;;;;;;;;5093719;28;20258;-78
2023/12/27 02:40:59;;;;;;;5.73;3.30;;;;;;;;;;5091693;28;20192;-78
2023/12/27 02:43:27;;;;;;;4.77;3.57;;;;;;;;;;5092829;28;20261;-78
2023/12/27 02:45:54;;;;;;;7.00;5.53;;;;;;;;;;5093083;28;20204;-78
2023/12/27 02:48:20;;;;;;;4.60;4.10;;;;;;;;;;5092983;28;20196;-78
2023/12/27 02:50:48;;;;;;;5.93;5.33;;;;;;;;;;5091283;28;20564;-78
2023/12/27 02:53:15;;;;;;;13.37;8.80;;;;;;;;;;5109269;28;20308;-78
2023/12/27 02:55:42;;;;;;;11.03;8.90;;;;;;;;;;5112188;28;20196;-78
2023/12/27 02:58:08;;;;;;;8.77;7.37;;;;;;;;;;5113237;28;20199;-78
2023/12/27 03:00:37;;;;;;;8.33;4.67;;;;;;;;;;5113052;28;20662;-78
2023/12/27 03:03:05;;;;;;;5.97;4.47;;;;;;;;;;5113493;28;20281;-78
2023/12/27 03:05:31;;;;;;;4.40;4.00;;;;;;;;;;5112923;28;20195;-78
2023/12/27 03:07:58;;;;;;;4.63;2.80;;;;;;;;;;5112266;28;20199;-78
2023/12/27 03:10:25;;;;;;;6.40;3.47;;;;;;;;;;5112415;28;20199;-79
2023/12/27 03:12:51;;;;;;;10.30;3.93;;;;;;;;;;5112570;28;20615;-78
2023/12/27 03:15:19;;;;;;;6.93;4.10;;;;;;;;;;5112739;28;20203;-79
2023/12/27 03:17:47;;;;;;;8.53;4.93;;;;;;;;;;5111424;28;20191;-78
2023/12/27 03:20:14;;;;;;;6.47;3.87;;;;;;;;;;5112433;28;20210;-78
2023/12/27 03:22:40;;;;;;;8.17;4.13;;;;;;;;;;5112083;28;20199;-78
2023/12/27 03:25:07;;;;;;;8.47;4.40;;;;;;;;;;5112535;28;20203;-77
2023/12/27 03:27:34;;;;;;;6.57;3.67;;;;;;;;;;5111099;28;20202;-78
2023/12/27 03:30:01;;;;;;;6.80;3.97;;;;;;;;;;5112486;28;20196;-78
2023/12/27 03:32:28;;;;;;;4.93;3.90;;;;;;;;;;5112884;28;20231;-78
2023/12/27 03:34:56;;;;;;;4.13;3.00;;;;;;;;;;5112597;28;20192;-79
2023/12/27 03:37:23;;;;;;;8.60;3.47;;;;;;;;;;5111976;28;20255;-78
2023/12/27 03:39:51;;;;;;;5.30;3.70;;;;;;;;;;5112851;28;20199;-78
2023/12/27 03:42:19;;;;;;;5.53;3.23;;;;;;;;;;5112280;28;20290;-78
2023/12/27 03:44:46;;;;;;;4.53;2.47;;;;;;;;;;5111149;28;20719;-78
2023/12/27 03:47:13;;;;;;;5.07;3.03;;;;;;;;;;5111531;28;20210;-79
2023/12/27 03:49:39;;;;;;;3.40;3.10;;;;;;;;;;5112243;28;20196;-80
2023/12/27 03:52:07;;;;;;;5.10;3.20;;;;;;;;;;5110508;28;20223;-80
2023/12/27 03:54:34;;;;;;;8.30;3.20;;;;;;;;;;5112499;28;20540;-78
2023/12/27 03:57:04;;;;;;;5.07;2.97;;;;;;;;;;5112074;28;20199;-78
2023/12/27 03:59:30;;;;;;;4.17;2.80;;;;;;;;;;5112085;28;20230;-77
2023/12/27 04:01:57;;;;;;;5.53;4.20;;;;;;;;;;5112534;28;20211;-77
2023/12/27 04:04:24;;;;;;;7.20;5.10;;;;;;;;;;5112341;28;20269;-77
2023/12/27 04:06:50;;;;;;;3.37;2.73;;;;;;;;;;5111989;28;20674;-78
2023/12/27 04:09:19;;;;;;;6.07;2.87;;;;;;;;;;5112364;28;20208;-79
2023/12/27 04:11:45;;;;;;;3.57;2.63;;;;;;;;;;5111055;28;20594;-80
2023/12/27 04:14:12;;;;;;;4.57;2.83;;;;;;;;;;5112396;28;20204;-77
2023/12/27 04:16:39;;;;;;;3.53;2.73;;;;;;;;;;5111637;28;20191;-80
2023/12/27 04:19:06;;;;;;;7.37;3.73;;;;;;;;;;5102026;28;20579;-78
2023/12/27 04:21:32;;;;;;;5.03;3.97;;;;;;;;;;5094650;28;20208;-78
2023/12/27 04:23:59;;;;;;;7.13;4.30;;;;;;;;;;5095681;28;20196;-78
2023/12/27 04:26:26;;;;;;;7.57;5.73;;;;;;;;;;5095648;28;20567;-79
2023/12/27 04:28:53;;;;;;;6.43;4.23;;;;;;;;;;5095137;28;20204;-78
2023/12/27 04:31:20;;;;;;;8.50;7.43;;;;;;;;;;5093866;28;20228;-78
2023/12/27 04:33:49;;;;;;;8.57;5.20;;;;;;;;;;5095191;28;20220;-78
2023/12/27 04:36:15;;;;;;;14.60;8.27;;;;;;;;;;5095886;28;20283;-78
2023/12/27 04:38:42;;;;;;;4.47;3.30;;;;;;;;;;5095542;28;20203;-78
2023/12/27 04:41:09;;;;;;;4.47;3.00;;;;;;;;;;5094517;28;20578;-79
2023/12/27 04:43:37;;;;;;;6.27;3.57;;;;;;;;;;5110571;28;20229;-78
2023/12/27 04:46:06;;;;;;;5.77;4.57;;;;;;;;;;5110615;28;20210;-76
2023/12/27 04:48:33;;;;;;;5.23;4.30;;;;;;;;;;5114550;28;20700;-76
2023/12/27 04:51:00;;;;;;;5.00;3.13;;;;;;;;;;5114395;28;20243;-77
2023/12/27 04:53:27;;;;;;;7.10;3.83;;;;;;;;;;5115552;28;20230;-77
2023/12/27 04:55:53;;;;;;;5.20;2.90;;;;;;;;;;5115047;28;20697;-77
2023/12/27 04:58:21;;;;;;;3.33;2.70;;;;;;;;;;5115111;28;20196;-77
2023/12/27 05:00:49;;;;;;;5.30;2.53;;;;;;;;;;5115213;28;20192;-77
2023/12/27 05:03:16;;;;;;;4.27;2.20;;;;;;;;;;5115544;28;20200;-77
2023/12/27 05:05:42;;;;;;;3.13;2.60;;;;;;;;;;5115709;28;20203;-77
2023/12/27 05:08:09;;;;;;;4.37;2.63;;;;;;;;;;5115282;28;20192;-78
2023/12/27 05:10:36;;;;;;;3.73;2.30;;;;;;;;;;5112878;28;20554;-79
2023/12/27 05:13:03;;;;;;;4.80;2.93;;;;;;;;;;5114625;28;20703;-78
2023/12/27 05:15:30;;;;;;;3.57;2.43;;;;;;;;;;5115415;28;20199;-79
2023/12/27 05:17:58;;;;;;;4.20;2.43;;;;;;;;;;5114899;28;20248;-79
2023/12/27 05:20:25;;;;;;;1.97;1.77;;;;;;;;;;5114642;28;20572;-78
2023/12/27 05:22:51;;;;;;;3.87;2.20;;;;;;;;;;5114498;28;20577;-79
2023/12/27 05:25:18;;;;;;;2.40;2.20;;;;;;;;;;5114541;28;20210;-78
2023/12/27 05:27:45;;;;;;;2.90;2.37;;;;;;;;;;5113046;28;20195;-79
2023/12/27 05:30:12;;;;;;;6.50;2.60;;;;;;;;;;5114080;28;20196;-79
2023/12/27 05:32:38;;;;;;;4.33;2.37;;;;;;;;;;5114087;28;20254;-79
2023/12/27 05:35:09;;;;;;;5.53;2.03;;;;;;;;;;5114675;28;20195;-78
2023/12/27 05:37:36;;;;;;;3.67;2.03;;;;;;;;;;5112822;28;20717;-78
2023/12/27 05:40:03;;;;;;;4.07;1.97;;;;;;;;;;5114154;28;20203;-77
2023/12/27 05:42:30;;;;;;;3.23;2.37;;;;;;;;;;5114173;28;20201;-79
2023/12/27 05:44:56;;;;;;;2.80;2.13;;;;;;;;;;5113657;28;20195;-78
2023/12/27 05:47:23;;;;;;;2.40;1.90;;;;;;;;;;5113674;28;20571;-79
2023/12/27 05:49:50;;;;;;;3.23;2.10;;;;;;;;;;5114102;28;20196;-78
2023/12/27 05:52:18;;;;;;;3.13;2.07;;;;;;;;;;5114804;28;20191;-78
2023/12/27 05:54:46;;;;;;;2.67;1.67;;;;;;;;;;5112356;28;20204;-78
2023/12/27 05:57:12;;;;;;;4.27;2.40;;;;;;;;;;5114863;28;20233;-78
2023/12/27 05:59:39;;;;;;;4.13;1.93;;;;;;;;;;5112455;28;20228;-79
2023/12/27 06:02:06;;;;;;;3.27;2.20;;;;;;;;;;5114037;28;20278;-78
2023/12/27 06:04:34;;;;;;;2.50;2.20;;;;;;;;;;5112837;28;20279;-78
2023/12/27 06:07:01;;;;;;;3.00;1.80;;;;;;;;;;5113961;28;20542;-78
2023/12/27 06:09:31;;;;;;;2.80;2.17;;;;;;;;;;5113991;28;20199;-78
2023/12/27 06:11:58;;;;;;;4.70;2.30;;;;;;;;;;5113770;28;20269;-78
2023/12/27 06:14:25;;;;;;;2.50;2.30;;;;;;;;;;5113952;28;20226;-78
2023/12/27 06:16:52;;;;;;;9.67;5.63;;;;;;;;;;5113961;28;20200;-78
2023/12/27 06:19:19;;;;;;;2.67;2.10;;;;;;;;;;5111761;28;20200;-78
2023/12/27 06:21:45;;;;;;;6.57;2.27;;;;;;;;;;5113391;28;20195;-78
2023/12/27 06:24:12;;;;;;;2.40;1.93;;;;;;;;;;5112807;28;20203;-78
2023/12/27 06:26:40;;;;;;;4.17;2.30;;;;;;;;;;5113661;28;20200;-78
2023/12/27 06:29:07;;;;;;;3.07;2.30;;;;;;;;;;5102077;28;20550;-79
2023/12/27 06:31:35;;;;;;;4.03;2.60;;;;;;;;;;5112338;28;20711;-79
2023/12/27 06:34:02;;;;;;;5.33;2.07;;;;;;;;;;5111637;28;20586;-79
2023/12/27 06:36:29;;;;;;;3.47;2.03;;;;;;;;;;5102907;28;20586;-78
2023/12/27 06:38:56;;;;;;;7.60;1.80;;;;;;;;;;5105313;28;20196;-78
2023/12/27 06:41:23;;;;;;;2.30;2.07;;;;;;;;;;5101907;28;20204;-79
2023/12/27 06:43:51;;;;;;;5.93;2.00;;;;;;;;;;5107542;28;20192;-78
2023/12/27 06:46:18;;;;;;;11.90;3.10;;;;;;;;;;5112922;28;20195;-78
2023/12/27 06:48:44;;;;;;;3.77;2.90;;;;;;;;;;5111186;28;20199;-78
2023/12/27 06:51:14;;;;;;;2.47;2.27;;;;;;;;;;5105074;28;20256;-78
2023/12/27 06:53:41;;;;;;;6.17;2.30;;;;;;;;;;5110579;28;20289;-77
2023/12/27 06:56:08;;;;;;;3.83;2.67;;;;;;;;;;5112107;28;20199;-78
2023/12/27 06:58:35;;;;;;;5.00;2.57;;;;;;;;;;5100218;28;20199;-77
2023/12/27 07:01:03;;;;;;;2.97;2.23;;;;;;;;;;5090635;28;20193;-77
2023/12/27 07:03:30;;;;;;;3.87;2.20;;;;;;;;;;5092669;28;20563;-78
2023/12/27 07:05:56;;;;;;;3.77;2.73;;;;;;;;;;5092211;28;20705;-77
2023/12/27 07:08:25;;;;;;;4.07;2.50;;;;;;;;;;5092417;28;20546;-78
2023/12/27 07:10:52;;;;;;;3.63;2.70;;;;;;;;;;5093026;28;20618;-78
2023/12/27 07:13:18;;;;;;;7.50;2.60;;;;;;;;;;5092116;28;20216;-78
2023/12/27 07:15:45;;;;;;;2.30;2.10;;;;;;;;;;5092308;28;20199;-79
2023/12/27 07:18:13;;;;;;;4.77;2.30;;;;;;;;;;5092459;28;20207;-78
2023/12/27 07:20:40;;;;;;;4.07;3.07;;;;;;;;;;5091782;28;20256;-78
2023/12/27 07:23:07;;;;;;;2.77;2.37;;;;;;;;;;5092103;28;20713;-77
2023/12/27 07:25:34;;;;;;;4.47;2.13;;;;;;;;;;5092532;28;20203;-79
2023/12/27 07:28:00;;;;;;;3.27;2.30;;;;;;;;;;5092026;28;20200;-77
2023/12/27 07:30:28;;;;;;;3.47;2.57;;;;;;;;;;5090257;28;20204;-81
2023/12/27 07:32:54;;;;;;;2.83;1.70;;;;;;;;;;5092378;28;20203;-80
2023/12/27 07:35:23;;;;;;;2.53;2.10;;;;;;;;;;5091816;28;20209;-80
2023/12/27 07:37:50;;;;;;;4.73;2.30;;;;;;;;;;5092144;28;20200;-79
2023/12/27 07:40:17;;;;;;;2.97;1.77;;;;;;;;;;5092334;28;20188;-79
2023/12/27 07:42:44;;;;;;;2.33;2.00;;;;;;;;;;5106799;28;20206;-79
2023/12/27 07:45:13;;;;;;;7.30;3.00;;;;;;;;;;5111996;28;20191;-79
2023/12/27 07:47:39;;;;;;;4.90;2.27;;;;;;;;;;5112045;28;20195;-79
2023/12/27 07:50:07;;;;;;;3.90;1.77;;;;;;;;;;5110986;28;20195;-79
2023/12/27 07:52:35;;;;;;;3.13;1.60;;;;;;;;;;5111685;28;20278;-79
2023/12/27 07:55:05;;;;;;;1.93;1.77;;;;;;;;;;5114558;28;20218;-79
2023/12/27 07:57:32;;;;;;;2.17;1.57;;;;;;;;;;5102876;28;20207;-79
2023/12/27 07:59:58;;;;;;;2.73;2.10;;;;;;;;;;5095791;28;20200;-79
2023/12/27 08:02:26;;;;;;;2.00;1.73;;;;;;;;;;5095589;28;20249;-79
2023/12/27 08:04:52;;;;;;;3.20;2.27;;;;;;;;;;5094357;28;20200;-79
2023/12/27 08:07:19;;;;;;;2.43;2.00;;;;;;;;;;5094708;28;20197;-80
2023/12/27 08:09:47;;;;;;;2.17;1.87;;;;;;;;;;5115432;28;20213;-79
2023/12/27 08:12:14;;;;;;;1.40;1.30;;;;;;;;;;5115757;28;20191;-79
2023/12/27 08:14:41;;;;;;;2.40;1.67;;;;;;;;;;5114033;28;20230;-78
2023/12/27 08:17:10;;;;;;;2.80;1.70;;;;;;;;;;5116135;28;20557;-78
2023/12/27 08:19:37;;;;;;;2.97;2.43;;;;;;;;;;5113806;28;20665;-79
2023/12/27 08:22:04;;;;;;;1.90;1.73;;;;;;;;;;5106569;28;20199;-79
2023/12/27 08:24:31;;;;;;;4.57;1.80;;;;;;;;;;5115604;28;20202;-77
2023/12/27 08:26:59;;;;;;;4.20;2.10;;;;;;;;;;5115909;28;20201;-78
2023/12/27 08:29:26;;;;;;;2.70;1.97;;;;;;;;;;5115645;28;20296;-78
2023/12/27 08:31:53;;;;;;;1.90;1.80;;;;;;;;;;5114048;28;20227;-79
2023/12/27 08:34:20;;;;;;;2.87;2.00;;;;;;;;;;5097512;28;20231;-79
2023/12/27 08:36:48;;;;;;;3.63;2.00;;;;;;;;;;5098252;28;20204;-78
2023/12/27 08:39:15;;;;;;;2.80;1.90;;;;;;;;;;5094808;28;20265;-80
2023/12/27 08:41:42;;;;;;;3.97;1.97;;;;;;;;;;5095185;28;20208;-80
2023/12/27 08:44:12;;;;;;;6.47;2.10;;;;;;;;;;5107406;28;20222;-78
2023/12/27 08:46:39;;;;;;;3.93;2.23;;;;;;;;;;5109254;28;20189;-78
2023/12/27 08:49:07;;;;;;;3.83;1.93;;;;;;;;;;5109210;28;20685;-78
2023/12/27 08:51:34;;;;;;;3.40;1.50;;;;;;;;;;5094386;28;20253;-79
2023/12/27 08:54:00;;;;;;;1.60;1.50;;;;;;;;;;5114452;28;20619;-77
2023/12/27 08:56:30;;;;;;;2.63;1.33;;;;;;;;;;5109973;28;20193;-77
2023/12/27 08:58:57;;;;;;;6.03;2.77;;;;;;;;;;5102399;28;20621;-77
2023/12/27 09:01:25;;;;;;;3.37;1.80;;;;;;;;;;5101690;28;20702;-77
2023/12/27 09:03:52;;;;;;;8.93;1.70;;;;;;;;;;5110584;28;20195;-77
2023/12/27 09:06:18;;;;;;;5.10;2.10;;;;;;;;;;5102007;28;20680;-78
2023/12/27 09:08:45;;;;;;;2.57;1.50;;;;;;;;;;5106023;28;20199;-82
2023/12/27 09:11:13;;;;;;;2.97;1.67;;;;;;;;;;5114314;28;20211;-81
2023/12/27 09:13:41;;;;;;;2.00;1.40;;;;;;;;;;5112894;28;20222;-81
2023/12/27 09:16:08;;;;;;;2.90;1.70;;;;;;;;;;5104501;28;20200;-81
2023/12/27 09:18:36;;;;;;;2.47;1.20;;;;;;;;;;5108645;28;20632;-80
2023/12/27 09:21:03;;;;;;;1.20;1.10;;;;;;;;;;5109982;28;20686;-82
2023/12/27 09:23:30;;;;;;;2.50;2.30;;;;;;;;;;5112520;28;20199;-81
2023/12/27 09:25:57;;;;;;;1.37;1.27;;;;;;;;;;5110731;28;20192;-79
2023/12/27 09:28:25;;;;;;;2.77;1.87;;;;;;;;;;5113385;28;20593;-80
2023/12/27 09:30:53;;;;;;;1.30;1.13;;;;;;;;;;5100232;28;20278;-78
2023/12/27 09:33:20;;;;;;;3.63;2.80;;;;;;;;;;5110694;28;20196;-79
2023/12/27 09:35:48;;;;;;;1.70;1.40;;;;;;;;;;5113822;28;20196;-79
2023/12/27 09:38:15;;;;;;;1.53;1.33;;;;;;;;;;5113451;28;20195;-79
2023/12/27 09:40:42;;;;;;;4.47;1.33;;;;;;;;;;5112869;28;20195;-80
2023/12/27 09:43:09;;;;;;;1.20;1.10;;;;;;;;;;5103935;28;20304;-80
2023/12/27 09:45:37;;;;;;;1.00;1.00;;;;;;;;;;5113868;28;20201;-80
2023/12/27 09:48:06;;;;;;;2.00;1.70;;;;;;;;;;5113373;28;20259;-80
2023/12/27 09:50:33;;;;;;;3.83;1.30;;;;;;;;;;5114032;28;20204;-79
2023/12/27 09:53:04;;;;;;;3.07;1.40;;;;;;;;;;5114368;28;20224;-80
2023/12/27 09:55:32;;;;;;;3.53;1.80;;;;;;;;;;5113768;28;20220;-80
2023/12/27 09:57:59;;;;;;;1.20;1.10;;;;;;;;;;5114703;28;20539;-79
2023/12/27 10:00:29;;;;;;;1.60;1.50;;;;;;;;;;5100049;28;20204;-81
2023/12/27 10:02:59;;;;;;;3.77;1.70;;;;;;;;;;5099447;28;20292;-81
2023/12/27 10:05:28;;;;;;;1.60;1.40;;;;;;;;;;5113292;28;20543;-80
2023/12/27 10:07:54;;;;;;;4.70;2.60;;;;;;;;;;5113588;28;20250;-78
2023/12/27 10:10:26;;;;;;;2.87;2.63;;;;;;;;;;5103214;28;20201;-78
2023/12/27 10:12:52;;;;;;;2.40;1.83;;;;;;;;;;5101034;28;20197;-79
2023/12/27 10:15:19;;;;;;;2.47;2.10;;;;;;;;;;5112634;28;20222;-83
2023/12/27 10:17:46;;;;;;;3.90;2.23;;;;;;;;;;5112679;28;20265;-76
2023/12/27 10:20:30;;;;;;;3.60;2.87;;;;;;;;;;5113428;28;20241;-76
2023/12/27 10:22:57;;;;;;;2.20;2.00;;;;;;;;;;5083417;28;20658;-77
2023/12/27 10:25:28;;;;;;;2.77;1.80;;;;;;;;;;5093348;28;20566;-78
2023/12/27 10:27:55;;;;;;;2.17;1.30;;;;;;;;;;5098285;28;20620;-77
2023/12/27 10:30:22;;;;;;;1.83;1.60;;;;;;;;;;5112835;28;20199;-77
2023/12/27 10:32:57;;;;;;;1.57;1.47;;;;;;;;;;5112061;28;20257;-77
2023/12/27 10:35:24;;;;;;;3.13;2.30;;;;;;;;;;5110250;28;20252;-77
2023/12/27 10:37:59;;;;;;;1.30;1.20;;;;;;;;;;5112565;28;20198;-77
2023/12/27 10:40:27;;;;;;;4.33;2.60;;;;;;;;;;5111939;28;20634;-77
2023/12/27 10:42:54;;;;;;;4.33;1.83;;;;;;;;;;5112433;28;20251;-79
2023/12/27 10:45:21;;;;;;;1.63;1.40;;;;;;;;;;5113980;28;20282;-77
2023/12/27 10:47:49;;;;;;;2.07;1.53;;;;;;;;;;5113228;28;20231;-77
2023/12/27 10:50:16;;;;;;;4.50;1.40;;;;;;;;;;5106596;28;20232;-77
2023/12/27 10:52:47;;;;;;;1.57;1.47;;;;;;;;;;5092433;28;20662;-77
2023/12/27 10:55:17;;;;;;;2.20;1.30;;;;;;;;;;5092280;28;20302;-77
2023/12/27 10:57:46;;;;;;;1.73;1.30;;;;;;;;;;5092205;28;20196;-77
2023/12/27 11:00:14;;;;;;;3.87;1.40;;;;;;;;;;5112428;28;20210;-77
2023/12/27 11:02:40;;;;;;;1.67;1.23;;;;;;;;;;5113448;28;20196;-77
2023/12/27 11:05:08;;;;;;;3.93;1.30;;;;;;;;;;5110864;28;20680;-80
2023/12/27 11:07:38;;;;;;;8.80;1.23;;;;;;;;;;5078184;28;20277;-78
2023/12/27 11:10:06;;;;;;;1.10;1.00;;;;;;;;;;5096081;28;20195;-77
2023/12/27 11:12:34;;;;;;;2.80;1.20;;;;;;;;;;5110124;28;20654;-77
2023/12/27 11:15:07;;;;;;;3.83;1.17;;;;;;;;;;5112890;28;20554;-76
2023/12/27 11:17:34;;;;;;;2.60;0.80;;;;;;;;;;5113220;28;20203;-77
2023/12/27 11:20:04;;;;;;;2.23;1.13;;;;;;;;;;5112663;28;20256;-77
2023/12/27 11:22:31;;;;;;;2.07;1.30;;;;;;;;;;5112256;28;20199;-77
2023/12/27 11:24:58;;;;;;;4.40;1.40;;;;;;;;;;5111265;28;20646;-77
2023/12/27 11:27:25;;;;;;;3.20;1.20;;;;;;;;;;5112780;28;20210;-77
2023/12/27 11:29:52;;;;;;;5.80;1.07;;;;;;;;;;5110738;28;20203;-77
2023/12/27 11:32:20;;;;;;;2.87;1.40;;;;;;;;;;5111144;28;20628;-77
2023/12/27 11:34:48;;;;;;;3.13;1.40;;;;;;;;;;5110750;28;20222;-77
2023/12/27 11:37:15;;;;;;;1.23;1.07;;;;;;;;;;5111535;28;20252;-78
2023/12/27 11:39:41;;;;;;;3.87;1.30;;;;;;;;;;5112077;28;20226;-77
2023/12/27 11:42:08;;;;;;;3.27;1.80;;;;;;;;;;5112510;28;20207;-77
2023/12/27 11:44:39;;;;;;;4.97;3.40;;;;;;;;;;5112167;28;20235;-77
2023/12/27 11:47:07;;;;;;;4.93;3.13;;;;;;;;;;5110101;28;20183;-77
2023/12/27 11:49:35;;;;;;;1.40;1.10;;;;;;;;;;5112062;28;20298;-77
2023/12/27 11:52:02;;;;;;;1.43;1.00;;;;;;;;;;5111903;28;20658;-77
2023/12/27 11:54:30;;;;;;;2.50;1.30;;;;;;;;;;5111867;28;20226;-77
2023/12/27 11:56:57;;;;;;;1.00;0.80;;;;;;;;;;5112665;28;20192;-76
2023/12/27 11:59:27;;;;;;;1.20;1.10;;;;;;;;;;5111839;28;20194;-77
2023/12/27 12:01:55;;;;;;;4.37;1.90;;;;;;;;;;5111863;28;20242;-77
2023/12/27 12:04:46;;;;;;;1.63;1.50;;;;;;;;;;5110772;28;20195;-77
2023/12/27 12:07:43;;;;;;;1.63;1.30;;;;;;;;;;5111715;28;20610;-77
2023/12/27 12:10:25;;;;;;;3.17;1.50;;;;;;;;;;5105842;28;20202;-77
2023/12/27 12:12:52;;;;;;;4.40;1.47;;;;;;;;;;5071292;28;20200;-77
2023/12/27 12:15:21;;;;;;;1.50;1.27;;;;;;;;;;5104584;28;20272;-76
2023/12/27 12:17:49;;;;;;;3.77;1.70;;;;;;;;;;5111131;28;20635;-77
2023/12/27 12:20:17;;;;;;;4.40;1.80;;;;;;;;;;5111663;28;20256;-77
2023/12/27 12:22:45;;;;;;;5.73;1.70;;;;;;;;;;5112172;28;20218;-77
2023/12/27 12:25:15;;;;;;;4.33;1.53;;;;;;;;;;5111978;28;20204;-77
2023/12/27 12:27:44;;;;;;;1.40;1.30;;;;;;;;;;5111957;28;20278;-76
2023/12/27 12:30:14;;;;;;;2.23;1.60;;;;;;;;;;5111825;28;20257;-76
2023/12/27 12:32:41;;;;;;;6.10;5.47;;;;;;;;;;5111828;28;20220;-77
2023/12/27 12:35:09;;;;;;;87.03;52.03;;;;;;;;;;5111182;28;20311;-77
2023/12/27 12:37:38;;;;;;;51.27;27.20;;;;;;;;;;5111081;28;20192;-77
2023/12/27 12:40:07;;;;;;;6.43;5.03;;;;;;;;;;5111681;28;20253;-77
2023/12/27 12:42:34;;;;;;;15.77;8.37;;;;;;;;;;5100499;28;20254;-77
2023/12/27 12:45:02;;;;;;;10.30;7.73;;;;;;;;;;5101821;28;20200;-77
2023/12/27 12:47:29;;;;;;;6.47;2.33;;;;;;;;;;5114544;28;20286;-77
2023/12/27 12:49:55;;;;;;;5.00;3.23;;;;;;;;;;5105410;28;20204;-79
2023/12/27 12:52:22;;;;;;;7.47;3.00;;;;;;;;;;5093730;28;20751;-78
2023/12/27 12:54:51;;;;;;;2.63;2.10;;;;;;;;;;5112972;28;20212;-78
2023/12/27 12:57:18;;;;;;;2.97;2.43;;;;;;;;;;5101184;28;20200;-77
2023/12/27 12:59:44;;;;;;;4.27;3.83;;;;;;;;;;5113550;28;20570;-76
2023/12/27 13:02:14;;;;;;;3.33;2.40;;;;;;;;;;5114325;28;20668;-77
2023/12/27 13:04:41;;;;;;;3.07;1.60;;;;;;;;;;5113840;28;20286;-76
2023/12/27 13:07:08;;;;;;;6.13;2.40;;;;;;;;;;5114539;28;20204;-76
2023/12/27 13:09:54;;;;;;;4.17;2.10;;;;;;;;;;5114795;28;20196;-76
2023/12/27 13:12:21;;;;;;;2.40;2.20;;;;;;;;;;5103661;28;20203;-76
2023/12/27 13:14:48;;;;;;;3.80;2.73;;;;;;;;;;5114190;28;20223;-76
2023/12/27 13:17:15;;;;;;;4.63;2.53;;;;;;;;;;5115138;28;20198;-76
2023/12/27 13:19:41;;;;;;;2.33;1.97;;;;;;;;;;5114603;28;20229;-76
2023/12/27 13:22:09;;;;;;;11.87;3.20;;;;;;;;;;5113225;28;20199;-77
2023/12/27 13:24:36;;;;;;;3.40;2.23;;;;;;;;;;5114354;28;20198;-76
2023/12/27 13:27:05;;;;;;;3.80;2.63;;;;;;;;;;5114307;28;20665;-76
2023/12/27 13:29:31;;;;;;;2.60;2.07;;;;;;;;;;5114782;28;20213;-76
2023/12/27 13:31:58;;;;;;;3.87;2.13;;;;;;;;;;5114825;28;20219;-76
2023/12/27 13:34:25;;;;;;;3.10;2.00;;;;;;;;;;5114611;28;20207;-76
2023/12/27 13:36:52;;;;;;;6.23;2.47;;;;;;;;;;5114524;28;20223;-77
2023/12/27 13:39:18;;;;;;;6.23;3.30;;;;;;;;;;5112845;28;20286;-77
2023/12/27 13:41:45;;;;;;;9.17;3.03;;;;;;;;;;5113953;28;20195;-76
2023/12/27 13:44:13;;;;;;;7.13;2.80;;;;;;;;;;5112647;28;20200;-78
2023/12/27 13:46:40;;;;;;;6.90;2.20;;;;;;;;;;5113567;28;20203;-76
2023/12/27 13:49:09;;;;;;;5.30;2.07;;;;;;;;;;5114468;28;20191;-77
2023/12/27 13:51:36;;;;;;;4.73;2.47;;;;;;;;;;5112768;28;20217;-76
2023/12/27 13:54:06;;;;;;;10.27;3.13;;;;;;;;;;5097689;28;20252;-77
2023/12/27 13:56:33;;;;;;;3.00;2.07;;;;;;;;;;5112323;28;20219;-76
2023/12/27 13:59:00;;;;;;;2.30;2.10;;;;;;;;;;5112232;28;20195;-77
2023/12/27 14:01:28;;;;;;;3.10;2.07;;;;;;;;;;5109723;28;20291;-77
2023/12/27 14:03:55;;;;;;;3.83;2.70;;;;;;;;;;5104090;28;20252;-77
2023/12/27 14:06:22;;;;;;;2.17;1.97;;;;;;;;;;5112557;28;20199;-77
2023/12/27 14:08:51;;;;;;;4.40;2.40;;;;;;;;;;5113700;28;20227;-78
2023/12/27 14:11:18;;;;;;;2.67;1.97;;;;;;;;;;5091988;28;20196;-79
2023/12/27 14:13:45;;;;;;;8.27;4.87;;;;;;;;;;5100799;28;20192;-81
2023/12/27 14:16:12;;;;;;;4.13;1.70;;;;;;;;;;5109104;28;20219;-80
2023/12/27 14:18:40;;;;;;;16.20;11.87;;;;;;;;;;5102131;28;20230;-77
2023/12/27 14:21:08;;;;;;;4.40;3.57;;;;;;;;;;5113215;28;20199;-77
2023/12/27 14:23:35;;;;;;;8.70;2.30;;;;;;;;;;5099493;28;20203;-77
2023/12/27 14:26:04;;;;;;;4.57;2.60;;;;;;;;;;5093291;28;20200;-77
2023/12/27 14:28:31;;;;;;;7.13;2.63;;;;;;;;;;5091022;28;20285;-77
2023/12/27 14:30:58;;;;;;;2.70;1.80;;;;;;;;;;5092958;28;20224;-77
2023/12/27 14:33:25;;;;;;;6.87;3.13;;;;;;;;;;5091121;28;20200;-77
2023/12/27 14:35:53;;;;;;;2.90;2.40;;;;;;;;;;5093132;28;20578;-77
2023/12/27 14:38:19;;;;;;;3.67;2.03;;;;;;;;;;5073437;28;20204;-77
2023/12/27 14:40:46;;;;;;;4.73;3.67;;;;;;;;;;5090660;28;20280;-77
2023/12/27 14:43:13;;;;;;;5.00;3.10;;;;;;;;;;5082323;28;20207;-80
2023/12/27 14:45:40;;;;;;;5.57;4.97;;;;;;;;;;5091776;28;20199;-77